Weather History for Independence, KS

Change the Weather History Date:

Saturday, December 28, 2013

  Actual Average (KCFV) Record (KCFV)
Temperature  
Mean Temperature 42 °F -  
Max Temperature 55 °F 43 °F 64 °F (1999)
Min Temperature 30 °F 23 °F 19 °F (2001)
Degree Days  
Heating Degree Days 22    
Moisture  
Dew Point 32 °F    
Average Humidity 72    
Maximum Humidity 87    
Minimum Humidity 44    
Precipitation  
Precipitation 0.00 in - - ()
Sea Level Pressure  
Sea Level Pressure 30.06 in    
Wind  
Wind Speed 9 mph (South)    
Max Wind Speed 16 mph    
Max Gust Speed 21 mph    
Visibility 10 miles    
Events      
Averages and records for this station are not official NWS values.
T = Trace of Precipitation, MM = Missing Value Source: NWS Daily Summary

Daily Weather History Graph

Daily Weather History Graph

Search for Another Location

Airport:

Trip Planner

Search our weather history database for the weather conditions in past years. The results will help you decide how hot, cold, wet, or windy it might be!

Date:

Astronomy

Dec. 28, 2013 Rise Set
Actual Time 7:36 AM CST 5:13 PM CST
Civil Twilight 7:06 AM CST 5:42 PM CST
Nautical Twilight 6:34 AM CST 6:15 PM CST
Astronomical Twilight 6:02 AM CST 6:47 PM CST
Moon 3:17 AM CST (12/28) 2:02 PM CST (12/28)
Length of Visible Light 10h 36m
Length of Day
9h 37m
Waning Crescent, 19% of the Moon is Illuminated
Dec 28
Waning Crescent
Jan 1
New
Jan 7
First Quarter
Jan 15
Full
Jan 23
Last Quarter

Hourly Weather History & Observations

Time (CST) Temp. Windchill Dew Point Humidity Pressure Visibility Wind Dir Wind Speed Gust Speed Precip Events Conditions
12:15 AM 33.8 °F 27.0 °F 28.4 °F 81% 30.26 in 10.0 mi SSW 8.1 mph - N/A   Clear
12:35 AM 33.8 °F 27.7 °F 30.2 °F 87% 30.26 in 10.0 mi SSW 6.9 mph - N/A   Clear
12:55 AM 32.0 °F 25.6 °F 28.4 °F 87% 30.25 in 10.0 mi South 6.9 mph - N/A   Clear
1:15 AM 32.0 °F 24.8 °F 28.4 °F 87% 30.24 in 10.0 mi South 8.1 mph - N/A   Clear
1:35 AM 32.0 °F 25.6 °F 28.4 °F 87% 30.24 in 10.0 mi SSW 6.9 mph - N/A   Clear
1:55 AM 32.0 °F 24.8 °F 28.4 °F 87% 30.24 in 10.0 mi SSW 8.1 mph - N/A   Clear
2:15 AM 32.0 °F 24.8 °F 28.4 °F 87% 30.23 in 10.0 mi South 8.1 mph - N/A   Clear
2:35 AM 32.0 °F 24.8 °F 28.4 °F 87% 30.23 in 10.0 mi South 8.1 mph - N/A   Clear
2:55 AM 33.8 °F 27.7 °F 28.4 °F 81% 30.23 in 10.0 mi South 6.9 mph - N/A   Clear
3:15 AM 33.8 °F 27.7 °F 28.4 °F 81% 30.22 in 10.0 mi South 6.9 mph - N/A   Clear
3:35 AM 32.0 °F 26.4 °F 28.4 °F 87% 30.21 in 10.0 mi South 5.8 mph - N/A   Clear
3:55 AM 32.0 °F 25.6 °F 26.6 °F 80% 30.20 in 10.0 mi South 6.9 mph - N/A   Clear
4:15 AM 32.0 °F 25.6 °F 26.6 °F 80% 30.20 in 10.0 mi South 6.9 mph - N/A   Clear
4:35 AM 32.0 °F 25.6 °F 26.6 °F 80% 30.19 in 10.0 mi South 6.9 mph - N/A   Clear
4:55 AM 32.0 °F 26.4 °F 28.4 °F 87% 30.19 in 10.0 mi South 5.8 mph - N/A   Clear
5:15 AM 32.0 °F 25.6 °F 26.6 °F 80% 30.18 in 10.0 mi South 6.9 mph - N/A   Clear
5:35 AM 32.0 °F 25.6 °F 28.4 °F 87% 30.17 in 10.0 mi South 6.9 mph - N/A   Clear
5:55 AM 32.0 °F 25.6 °F 26.6 °F 80% 30.17 in 10.0 mi South 6.9 mph - N/A   Clear
6:15 AM 32.0 °F 24.8 °F 26.6 °F 80% 30.17 in 10.0 mi South 8.1 mph - N/A   Clear
6:35 AM 32.0 °F 25.6 °F 26.6 °F 80% 30.18 in 10.0 mi SSE 6.9 mph - N/A   Clear
6:55 AM 32.0 °F 26.4 °F 26.6 °F 80% 30.17 in 10.0 mi South 5.8 mph - N/A   Clear
7:15 AM 30.2 °F 24.3 °F 26.6 °F 86% 30.17 in 10.0 mi South 5.8 mph - N/A   Clear
7:35 AM 30.2 °F 24.3 °F 26.6 °F 86% 30.17 in 10.0 mi SSE 5.8 mph - N/A   Clear
7:55 AM 30.2 °F 22.6 °F 26.6 °F 86% 30.17 in 10.0 mi SSE 8.1 mph - N/A   Clear
8:15 AM 32.0 °F 24.2 °F 28.4 °F 87% 30.16 in 10.0 mi South 9.2 mph - N/A   Clear
8:35 AM 32.0 °F 25.6 °F 28.4 °F 87% 30.15 in 10.0 mi South 6.9 mph - N/A   Clear
8:55 AM 33.8 °F 26.4 °F 30.2 °F 87% 30.16 in 10.0 mi South 9.2 mph - N/A   Clear
9:15 AM 33.8 °F 27.7 °F 30.2 °F 87% 30.16 in 10.0 mi South 6.9 mph - N/A   Clear
9:35 AM 35.6 °F 29.2 °F 32.0 °F 87% 30.16 in 10.0 mi South 8.1 mph - N/A   Clear
9:55 AM 35.6 °F 30.7 °F 32.0 °F 87% 30.15 in 10.0 mi South 5.8 mph - N/A   Clear
10:15 AM 39.2 °F 34.2 °F 33.8 °F 81% 30.15 in 10.0 mi South 6.9 mph - N/A   Clear
10:35 AM 41.0 °F 37.1 °F 33.8 °F 76% 30.15 in 10.0 mi South 5.8 mph - N/A   Clear
10:55 AM 42.8 °F 41.1 °F 33.8 °F 70% 30.13 in 10.0 mi SSE 3.5 mph - N/A   Clear
11:15 AM 46.4 °F 40.1 °F 35.6 °F 66% 30.11 in 10.0 mi South 15.0 mph - N/A   Clear
11:35 AM 50.0 °F - 35.6 °F 58% 30.10 in 10.0 mi SSW 16.1 mph - N/A   Clear
11:55 AM 50.0 °F - 35.6 °F 58% 30.08 in 10.0 mi SSW 13.8 mph - N/A   Clear
12:15 PM 51.8 °F - 35.6 °F 54% 30.06 in 10.0 mi South 15.0 mph 20.7 mph N/A   Clear
12:35 PM 51.8 °F - 35.6 °F 54% 30.05 in 10.0 mi South 15.0 mph - N/A   Clear
12:55 PM 50.0 °F - 35.6 °F 58% 30.03 in 10.0 mi South 9.2 mph - N/A   Clear
1:15 PM 51.8 °F - 35.6 °F 54% 30.01 in 10.0 mi South 15.0 mph 18.4 mph N/A   Clear
1:35 PM 53.6 °F - 35.6 °F 51% 30.00 in 10.0 mi South 12.7 mph - N/A   Clear
1:55 PM 53.6 °F - 33.8 °F 47% 29.98 in 10.0 mi South 11.5 mph - N/A   Clear
2:15 PM 55.4 °F - 33.8 °F 44% 29.97 in 10.0 mi South 16.1 mph - N/A   Clear
2:35 PM 53.6 °F - 33.8 °F 47% 29.96 in 10.0 mi South 16.1 mph - N/A   Clear
2:55 PM 53.6 °F - 33.8 °F 47% 29.95 in 10.0 mi South 12.7 mph 18.4 mph N/A   Clear
3:15 PM 53.6 °F - 33.8 °F 47% 29.95 in 10.0 mi South 13.8 mph - N/A   Clear
3:35 PM 53.6 °F - 33.8 °F 47% 29.94 in 10.0 mi South 16.1 mph - N/A   Clear
3:55 PM 53.6 °F - 33.8 °F 47% 29.94 in 10.0 mi South 12.7 mph - N/A   Clear
4:15 PM 53.6 °F - 33.8 °F 47% 29.94 in 10.0 mi South 12.7 mph - N/A   Clear
4:35 PM 51.8 °F - 33.8 °F 50% 29.93 in 10.0 mi South 10.4 mph - N/A   Clear
4:55 PM 50.0 °F - 33.8 °F 54% 29.93 in 10.0 mi South 9.2 mph - N/A   Clear
5:15 PM 46.4 °F 41.9 °F 33.8 °F 62% 29.92 in 10.0 mi South 9.2 mph - N/A   Clear
5:35 PM 44.6 °F 39.7 °F 33.8 °F 66% 29.92 in 10.0 mi SSE 9.2 mph - N/A   Clear
5:55 PM 42.8 °F 37.5 °F 32.0 °F 66% 29.92 in 10.0 mi SSE 9.2 mph - N/A   Clear
6:15 PM 44.6 °F 39.2 °F 33.8 °F 66% 29.92 in 10.0 mi SSE 10.4 mph - N/A   Clear
6:35 PM 44.6 °F 39.2 °F 33.8 °F 66% 29.92 in 10.0 mi SSE 10.4 mph - N/A   Clear
6:55 PM 44.6 °F 39.2 °F 33.8 °F 66% 29.92 in 10.0 mi South 10.4 mph - N/A   Clear
7:15 PM 44.6 °F 39.7 °F 35.6 °F 71% 29.93 in 10.0 mi South 9.2 mph - N/A   Clear
7:35 PM 44.6 °F 39.7 °F 35.6 °F 71% 29.92 in 10.0 mi SSE 9.2 mph - N/A   Clear
7:55 PM 44.6 °F 39.7 °F 35.6 °F 71% 29.92 in 10.0 mi SSE 9.2 mph - N/A   Clear
8:15 PM 44.6 °F 39.7 °F 35.6 °F 71% 29.92 in 10.0 mi South 9.2 mph - N/A   Clear
8:35 PM 44.6 °F 38.4 °F 35.6 °F 71% 29.91 in 10.0 mi South 12.7 mph - N/A   Clear
8:55 PM 44.6 °F 38.1 °F 35.6 °F 71% 29.91 in 10.0 mi South 13.8 mph - N/A   Clear
9:15 PM 44.6 °F 39.2 °F 35.6 °F 71% 29.90 in 10.0 mi South 10.4 mph - N/A   Clear
9:35 PM 44.6 °F 39.7 °F 35.6 °F 71% 29.91 in 10.0 mi South 9.2 mph - N/A   Clear
9:55 PM 44.6 °F 39.7 °F 35.6 °F 71% 29.90 in 10.0 mi South 9.2 mph - N/A   Clear
10:15 PM 44.6 °F 38.8 °F 35.6 °F 71% 29.90 in 10.0 mi South 11.5 mph - N/A   Clear
10:35 PM 44.6 °F 39.7 °F 35.6 °F 71% 29.91 in 10.0 mi SSW 9.2 mph - N/A   Clear
10:55 PM 44.6 °F 38.8 °F 35.6 °F 71% 29.91 in 10.0 mi South 11.5 mph - N/A   Clear
11:15 PM 42.8 °F 38.0 °F 35.6 °F 76% 29.91 in 10.0 mi SSW 8.1 mph - N/A   Clear
11:35 PM 42.8 °F 39.3 °F 33.8 °F 70% 29.92 in 10.0 mi SW 5.8 mph - N/A   Clear
11:55 PM 41.0 °F 36.4 °F 33.8 °F 76% 29.94 in 10.0 mi WNW 6.9 mph - N/A   Clear